Time;durP1;ratioP1;P1;durP2;ratioP2;P2;SDS_P1;SDS_P2;PMS_P1;PMS_P2;Temp;Humidity;BMP_temperature;BMP_pressure;BME280_temperature;BME280_humidity;BME280_pressure;Samples;Min_cycle;Max_cycle;Signal;HPM_P1;HPM_P2
2023/11/13 00:00:46;;;;;;;7.32;2.70;;;14.80;91.40;;;;;;4997184;28;20022;-80
2023/11/13 00:03:11;;;;;;;7.13;2.63;;;14.80;91.30;;;;;;4997235;28;20030;-80
2023/11/13 00:05:37;;;;;;;8.15;3.35;;;14.90;91.20;;;;;;4997162;28;20018;-80
2023/11/13 00:08:06;;;;;;;8.30;2.70;;;14.90;91.10;;;;;;4996816;28;20033;-80
2023/11/13 00:10:33;;;;;;;7.15;2.58;;;14.90;91.00;;;;;;4997168;28;20486;-80
2023/11/13 00:12:59;;;;;;;7.47;2.58;;;14.90;90.90;;;;;;4996968;28;20498;-80
2023/11/13 00:15:25;;;;;;;5.53;2.60;;;14.80;90.80;;;;;;4996970;28;20479;-80
2023/11/13 00:17:51;;;;;;;5.88;2.50;;;14.90;90.80;;;;;;4996614;28;20022;-80
2023/11/13 00:20:18;;;;;;;8.95;3.10;;;14.90;90.70;;;;;;4997006;28;20105;-80
2023/11/13 00:22:45;;;;;;;7.25;2.88;;;14.90;90.70;;;;;;4996722;28;20414;-80
2023/11/13 00:25:10;;;;;;;8.85;3.22;;;14.80;90.70;;;;;;5014360;28;20100;-80
2023/11/13 00:27:36;;;;;;;6.22;2.55;;;14.80;90.90;;;;;;4996568;28;20491;-80
2023/11/13 00:30:03;;;;;;;7.68;2.90;;;14.70;90.90;;;;;;4996613;28;20084;-80
2023/11/13 00:32:29;;;;;;;8.20;2.72;;;14.70;91.10;;;;;;4996724;28;20551;-80
2023/11/13 00:34:55;;;;;;;6.53;2.55;;;14.70;91.10;;;;;;4996689;28;20128;-80
2023/11/13 00:37:21;;;;;;;6.75;2.45;;;14.70;91.10;;;;;;5013757;28;20064;-80
2023/11/13 00:39:46;;;;;;;9.38;3.10;;;14.70;91.10;;;;;;5013912;28;20054;-80
2023/11/13 00:42:12;;;;;;;5.53;2.35;;;14.60;91.10;;;;;;4996498;28;20484;-79
2023/11/13 00:44:37;;;;;;;5.88;2.40;;;14.60;91.10;;;;;;4996460;28;20030;-80
2023/11/13 00:47:03;;;;;;;6.18;2.83;;;14.60;91.20;;;;;;4995911;28;20021;-80
2023/11/13 00:49:29;;;;;;;7.90;2.58;;;14.60;91.20;;;;;;4996490;28;20022;-80
2023/11/13 00:51:55;;;;;;;6.28;2.45;;;14.60;91.20;;;;;;4996203;28;20036;-80
2023/11/13 00:54:21;;;;;;;5.82;2.50;;;14.60;91.20;;;;;;4996315;28;20022;-80
2023/11/13 00:56:47;;;;;;;5.47;2.30;;;14.60;91.20;;;;;;4995925;28;20026;-80
2023/11/13 00:59:13;;;;;;;8.45;2.90;;;14.60;91.20;;;;;;4996247;28;20033;-80
2023/11/13 01:01:38;;;;;;;6.75;2.47;;;14.60;91.20;;;;;;4996141;28;20176;-80
2023/11/13 01:04:04;;;;;;;6.65;2.90;;;14.50;91.20;;;;;;5013620;28;20026;-80
2023/11/13 01:06:30;;;;;;;8.13;2.88;;;14.60;91.20;;;;;;4995956;28;20026;-80
2023/11/13 01:08:56;;;;;;;6.90;2.60;;;14.50;91.20;;;;;;5013532;28;20034;-80
2023/11/13 01:11:22;;;;;;;5.78;2.58;;;14.50;91.10;;;;;;4995871;28;20034;-80
2023/11/13 01:13:48;;;;;;;5.05;2.15;;;14.50;91.10;;;;;;5013380;28;20022;-80
2023/11/13 01:16:13;;;;;;;5.90;2.53;;;14.50;91.10;;;;;;4994831;28;20057;-80
2023/11/13 01:18:39;;;;;;;5.95;2.40;;;14.60;91.00;;;;;;4995613;28;20080;-80
2023/11/13 01:21:05;;;;;;;7.45;2.53;;;14.60;90.90;;;;;;4995998;28;20141;-79
2023/11/13 01:23:30;;;;;;;5.85;2.50;;;14.50;90.80;;;;;;4995710;28;20022;-80
2023/11/13 01:25:56;;;;;;;7.07;2.40;;;14.60;90.80;;;;;;4995584;28;20480;-80
2023/11/13 01:28:22;;;;;;;6.50;2.42;;;14.60;90.70;;;;;;4995299;28;20558;-81
2023/11/13 01:30:48;;;;;;;5.50;2.42;;;14.70;90.60;;;;;;4995579;28;20034;-79
2023/11/13 01:33:13;;;;;;;5.50;2.45;;;14.70;90.60;;;;;;5013283;28;20022;-80
2023/11/13 01:35:39;;;;;;;5.68;2.50;;;14.70;90.60;;;;;;5013105;28;20018;-80
2023/11/13 01:38:05;;;;;;;5.43;2.65;;;14.60;90.50;;;;;;5012757;28;20079;-80
2023/11/13 01:40:31;;;;;;;6.22;2.58;;;14.60;90.50;;;;;;4995685;28;20125;-80
2023/11/13 01:42:57;;;;;;;5.95;2.35;;;14.60;90.60;;;;;;4995274;28;20500;-80
2023/11/13 01:45:22;;;;;;;5.07;2.28;;;14.50;90.60;;;;;;5013012;28;20117;-80
2023/11/13 01:47:49;;;;;;;6.07;2.28;;;14.50;90.70;;;;;;4995020;28;20071;-80
2023/11/13 01:50:15;;;;;;;6.25;2.70;;;14.50;90.70;;;;;;5013068;28;20112;-80
2023/11/13 01:52:41;;;;;;;4.50;2.20;;;14.50;90.80;;;;;;4995274;28;20123;-80
2023/11/13 01:55:09;;;;;;;4.78;2.40;;;14.40;90.80;;;;;;4995395;28;20022;-80
2023/11/13 01:57:36;;;;;;;5.80;2.38;;;14.40;90.80;;;;;;4994158;28;20029;-80
2023/11/13 02:00:04;;;;;;;5.70;2.38;;;14.40;90.90;;;;;;4995167;28;20026;-80
2023/11/13 02:02:30;;;;;;;5.95;2.28;;;14.40;90.90;;;;;;4995233;28;20026;-80
2023/11/13 02:04:55;;;;;;;7.10;2.45;;;14.40;90.80;;;;;;4995296;28;20026;-80
2023/11/13 02:07:21;;;;;;;6.28;2.25;;;14.40;90.90;;;;;;4994914;28;20033;-80
2023/11/13 02:09:49;;;;;;;5.00;2.20;;;14.40;90.90;;;;;;4995208;28;20033;-79
2023/11/13 02:12:15;;;;;;;5.20;2.22;;;14.40;90.80;;;;;;4995406;28;20399;-80
2023/11/13 02:14:41;;;;;;;5.35;2.25;;;14.40;90.90;;;;;;4995201;28;20022;-81
2023/11/13 02:17:09;;;;;;;6.35;2.55;;;14.40;90.90;;;;;;4994654;28;20523;-80
2023/11/13 02:19:34;;;;;;;4.75;2.13;;;14.40;90.90;;;;;;4994897;28;20521;-80
2023/11/13 02:22:00;;;;;;;5.72;2.33;;;14.30;90.90;;;;;;4995068;28;20022;-80
2023/11/13 02:24:26;;;;;;;4.38;2.08;;;14.40;90.90;;;;;;5012596;28;20022;-80
2023/11/13 02:26:52;;;;;;;6.43;2.60;;;14.30;90.90;;;;;;4994755;28;20026;-80
2023/11/13 02:29:18;;;;;;;5.75;2.53;;;14.30;91.10;;;;;;4994931;28;20037;-80
2023/11/13 02:31:55;;;;;;;4.60;2.28;;;14.30;91.00;;;;;;4995104;28;20038;-79
2023/11/13 02:34:22;;;;;;;7.60;2.92;;;14.40;90.90;;;;;;5012527;28;20441;-79
2023/11/13 02:36:49;;;;;;;6.35;2.63;;;14.40;90.80;;;;;;5012396;28;20022;-80
2023/11/13 02:39:22;;;;;;;4.88;2.20;;;14.40;90.80;;;;;;5012503;28;20022;-79
2023/11/13 02:41:48;;;;;;;4.28;2.10;;;14.40;90.70;;;;;;5013814;28;20050;-80
2023/11/13 02:44:15;;;;;;;5.03;2.10;;;14.40;90.60;;;;;;4995000;28;20025;-79
2023/11/13 02:46:41;;;;;;;5.20;2.33;;;14.50;90.60;;;;;;5012010;28;20034;-80
2023/11/13 02:49:06;;;;;;;4.22;2.10;;;14.50;90.50;;;;;;5012359;28;20041;-80
2023/11/13 02:51:32;;;;;;;5.78;2.35;;;14.50;90.50;;;;;;5012448;28;20037;-79
2023/11/13 02:53:58;;;;;;;5.18;2.30;;;14.50;90.50;;;;;;4994743;28;20030;-80
2023/11/13 02:56:23;;;;;;;5.57;2.33;;;14.50;90.40;;;;;;4994741;28;20057;-80
2023/11/13 02:58:49;;;;;;;4.28;2.00;;;14.40;90.40;;;;;;4994372;28;20018;-80
2023/11/13 03:01:15;;;;;;;5.00;2.10;;;14.40;90.50;;;;;;4994648;28;20080;-80
2023/11/13 03:03:42;;;;;;;4.72;2.17;;;14.40;90.60;;;;;;5012155;28;20026;-80
2023/11/13 03:06:07;;;;;;;4.45;2.00;;;14.30;90.60;;;;;;5012196;28;20058;-80
2023/11/13 03:08:33;;;;;;;5.18;2.33;;;14.30;90.60;;;;;;4995161;28;20147;-80
2023/11/13 03:10:59;;;;;;;3.85;2.03;;;14.30;90.70;;;;;;4998127;28;20030;-80
2023/11/13 03:13:24;;;;;;;5.20;2.25;;;14.30;90.70;;;;;;4988262;28;20026;-80
2023/11/13 03:15:50;;;;;;;4.35;2.00;;;14.20;90.70;;;;;;4996011;28;20059;-80
2023/11/13 03:18:16;;;;;;;4.28;1.83;;;14.30;90.70;;;;;;4978378;28;20459;-80
2023/11/13 03:20:45;;;;;;;5.30;2.40;;;14.20;90.70;;;;;;4978656;28;20037;-80
2023/11/13 03:23:14;;;;;;;4.90;2.00;;;14.20;90.70;;;;;;4995914;28;20033;-80
2023/11/13 03:25:41;;;;;;;3.90;2.00;;;14.20;90.70;;;;;;4978504;28;20030;-79
2023/11/13 03:28:06;;;;;;;5.18;2.30;;;14.20;90.70;;;;;;4978154;28;20472;-80
2023/11/13 03:30:32;;;;;;;4.88;2.40;;;14.20;90.80;;;;;;4993898;28;20038;-80
2023/11/13 03:32:59;;;;;;;5.43;2.45;;;14.20;90.80;;;;;;4993336;28;20022;-80
2023/11/13 03:35:24;;;;;;;4.47;1.90;;;14.20;90.80;;;;;;4977052;28;20026;-80
2023/11/13 03:37:50;;;;;;;4.88;2.17;;;14.20;90.80;;;;;;4993061;28;20026;-80
2023/11/13 03:40:16;;;;;;;4.50;2.05;;;14.20;90.80;;;;;;4994604;28;20058;-80
2023/11/13 03:42:42;;;;;;;3.72;1.95;;;14.20;90.70;;;;;;4993461;28;20025;-80
2023/11/13 03:45:08;;;;;;;4.53;2.10;;;14.20;90.80;;;;;;4993299;28;20023;-79
2023/11/13 03:47:33;;;;;;;3.63;2.00;;;14.20;90.80;;;;;;4976814;28;20026;-80
2023/11/13 03:49:59;;;;;;;6.47;2.28;;;14.20;90.70;;;;;;4993314;28;20408;-80
2023/11/13 03:52:24;;;;;;;4.90;1.90;;;14.20;90.80;;;;;;4994733;28;20026;-80
2023/11/13 03:54:50;;;;;;;3.28;1.83;;;14.20;90.70;;;;;;4994347;28;20109;-80
2023/11/13 03:57:16;;;;;;;4.05;2.00;;;14.30;90.90;;;;;;4992910;28;20030;-80
2023/11/13 03:59:42;;;;;;;3.88;2.00;;;14.30;90.60;;;;;;4993044;28;20073;-81
2023/11/13 04:02:07;;;;;;;5.30;2.53;;;14.30;90.50;;;;;;4993161;28;20018;-80
2023/11/13 04:04:33;;;;;;;4.57;2.00;;;14.30;90.50;;;;;;4994175;28;20026;-79
2023/11/13 04:06:58;;;;;;;3.70;1.92;;;14.30;90.40;;;;;;4992602;28;20026;-79
2023/11/13 04:09:24;;;;;;;4.93;2.10;;;14.40;90.40;;;;;;4992951;28;20129;-79
2023/11/13 04:11:50;;;;;;;5.15;2.25;;;14.40;90.30;;;;;;4992968;28;20047;-80
2023/11/13 04:14:16;;;;;;;3.65;2.00;;;14.40;90.40;;;;;;4992749;28;20030;-80
2023/11/13 04:16:42;;;;;;;4.82;2.20;;;14.30;90.40;;;;;;4993822;28;20033;-80
2023/11/13 04:19:08;;;;;;;3.50;2.00;;;14.30;90.40;;;;;;4993008;28;20018;-80
2023/11/13 04:21:34;;;;;;;4.53;2.00;;;14.20;90.40;;;;;;4991843;28;20022;-80
2023/11/13 04:24:00;;;;;;;3.65;1.95;;;14.20;90.40;;;;;;4976416;28;20026;-82
2023/11/13 04:26:26;;;;;;;4.95;2.22;;;14.20;90.50;;;;;;4973823;28;20057;-80
2023/11/13 04:28:53;;;;;;;3.55;2.03;;;14.20;90.50;;;;;;5002644;28;20068;-80
2023/11/13 04:31:19;;;;;;;4.90;2.35;;;14.20;90.50;;;;;;4959653;28;1032047;-80
2023/11/13 04:33:44;;;;;;;3.80;2.10;;;14.10;90.50;;;;;;4992748;28;20522;-81
2023/11/13 04:36:10;;;;;;;4.63;2.00;;;14.20;90.50;;;;;;4993102;28;20040;-80
2023/11/13 04:38:40;;;;;;;4.20;2.15;;;14.10;90.50;;;;;;4974965;28;20065;-81
2023/11/13 04:41:06;;;;;;;3.03;1.92;;;14.20;90.50;;;;;;4992489;28;20042;-81
2023/11/13 04:43:32;;;;;;;4.65;2.30;;;14.10;90.50;;;;;;4992768;28;20058;-80
2023/11/13 04:45:57;;;;;;;4.00;2.10;;;14.10;90.50;;;;;;4975793;28;20029;-79
2023/11/13 04:48:22;;;;;;;3.58;1.80;;;14.20;90.50;;;;;;4974916;28;20018;-80
2023/11/13 04:50:48;;;;;;;5.00;2.10;;;14.10;90.50;;;;;;4974682;28;20400;-84
2023/11/13 04:53:14;;;;;;;6.15;2.80;;;14.10;90.50;;;;;;4974746;28;20057;-83
2023/11/13 04:55:39;;;;;;;3.85;2.03;;;14.10;90.50;;;;;;4975046;28;20046;-80
2023/11/13 04:58:05;;;;;;;4.07;2.08;;;14.10;90.50;;;;;;4974103;28;20041;-81
2023/11/13 05:00:31;;;;;;;3.72;1.90;;;14.10;90.50;;;;;;4975375;28;20031;-81
2023/11/13 05:02:56;;;;;;;4.25;2.13;;;14.10;90.50;;;;;;4974750;28;20027;-83
2023/11/13 05:05:22;;;;;;;3.55;1.92;;;14.00;90.50;;;;;;4974884;28;20381;-80
2023/11/13 05:07:47;;;;;;;4.47;2.30;;;14.10;90.50;;;;;;4975021;28;20030;-81
2023/11/13 05:10:13;;;;;;;4.13;1.90;;;14.10;90.50;;;;;;4988833;28;20026;-81
2023/11/13 05:12:39;;;;;;;4.20;1.92;;;14.10;90.50;;;;;;5010790;28;20026;-80
2023/11/13 05:15:04;;;;;;;3.22;1.90;;;14.10;90.30;;;;;;5008293;28;20152;-80
2023/11/13 05:17:31;;;;;;;4.68;2.05;;;14.10;90.40;;;;;;5014001;28;20454;-82
2023/11/13 05:19:57;;;;;;;4.15;2.00;;;14.20;90.30;;;;;;5010700;28;20491;-80
2023/11/13 05:22:22;;;;;;;4.75;2.28;;;14.20;90.30;;;;;;5012009;28;20037;-79
2023/11/13 05:24:48;;;;;;;4.72;2.28;;;14.10;90.30;;;;;;4995835;28;20034;-78
2023/11/13 05:27:13;;;;;;;3.90;2.03;;;14.20;90.30;;;;;;5010350;28;20029;-79
2023/11/13 05:29:40;;;;;;;6.13;2.40;;;14.20;90.20;;;;;;5000014;28;20048;-80
2023/11/13 05:32:06;;;;;;;3.20;1.90;;;14.20;90.10;;;;;;4993754;28;20029;-79
2023/11/13 05:34:32;;;;;;;3.78;1.98;;;14.20;90.10;;;;;;4993579;28;20033;-79
2023/11/13 05:36:57;;;;;;;3.85;2.20;;;14.20;90.10;;;;;;4993820;28;20029;-79
2023/11/13 05:39:23;;;;;;;3.00;1.67;;;14.20;90.20;;;;;;4993516;28;20034;-80
2023/11/13 05:41:48;;;;;;;4.32;2.10;;;14.20;90.20;;;;;;4993735;28;20025;-80
2023/11/13 05:44:14;;;;;;;4.45;2.13;;;14.10;90.20;;;;;;4993285;28;20511;-79
2023/11/13 05:46:43;;;;;;;5.65;2.30;;;14.10;90.30;;;;;;4993671;28;20042;-80
2023/11/13 05:49:08;;;;;;;3.80;2.10;;;14.10;90.30;;;;;;4993707;28;20053;-79
2023/11/13 05:51:34;;;;;;;5.13;2.33;;;14.10;90.30;;;;;;4993567;28;20061;-79
2023/11/13 05:53:59;;;;;;;3.40;2.00;;;14.10;90.40;;;;;;4993525;28;20084;-78
2023/11/13 05:56:25;;;;;;;4.82;1.98;;;14.10;90.40;;;;;;4993453;28;20399;-79
2023/11/13 05:58:50;;;;;;;3.95;2.10;;;14.10;90.40;;;;;;4993021;28;20021;-79
2023/11/13 06:01:19;;;;;;;3.25;1.92;;;14.00;90.40;;;;;;4993784;28;20137;-79
2023/11/13 06:03:45;;;;;;;3.95;2.10;;;14.00;90.40;;;;;;4993542;28;20132;-79
2023/11/13 06:06:16;;;;;;;4.68;2.10;;;14.00;90.40;;;;;;4993191;28;20120;-80
2023/11/13 06:08:45;;;;;;;3.53;2.10;;;14.00;90.40;;;;;;4993220;28;20030;-80
2023/11/13 06:11:11;;;;;;;4.15;2.10;;;14.00;90.40;;;;;;5010989;28;20026;-80
2023/11/13 06:13:37;;;;;;;4.25;2.13;;;14.00;90.40;;;;;;4993103;28;20048;-79
2023/11/13 06:16:03;;;;;;;4.15;2.22;;;14.00;90.40;;;;;;4993091;28;20645;-78
2023/11/13 06:19:06;;;;;;;3.92;2.10;;;14.00;90.40;;;;;;5053202;23;20071;-79
2023/11/13 06:21:40;;;;;;;4.97;2.20;;;14.10;90.40;;;;;;5031423;28;20037;-80
2023/11/13 06:24:50;;;;;;;10.05;2.85;;;14.00;90.40;;;;;;5033100;28;20033;-79
2023/11/13 06:37:16;;;;;;;6.00;2.33;;;14.00;89.90;;;;;;5075674;23;20073;-79
2023/11/13 06:39:44;;;;;;;6.20;2.65;;;14.00;90.00;;;;;;4995121;28;20492;-78
2023/11/13 06:42:10;;;;;;;6.43;2.60;;;14.00;90.00;;;;;;4995425;28;20026;-79
2023/11/13 06:44:35;;;;;;;4.60;2.33;;;14.00;90.00;;;;;;4997226;28;20022;-79
2023/11/13 06:47:01;;;;;;;7.60;2.53;;;14.00;90.00;;;;;;4998137;28;20694;-79
2023/11/13 06:49:27;;;;;;;5.35;2.80;;;14.10;90.00;;;;;;4998390;28;20022;-79
2023/11/13 06:51:52;;;;;;;6.95;2.40;;;14.10;90.00;;;;;;4998299;28;20064;-79
2023/11/13 06:54:20;;;;;;;7.88;2.60;;;14.10;90.00;;;;;;4998474;28;20069;-79
2023/11/13 06:56:46;;;;;;;5.35;2.83;;;14.10;90.00;;;;;;4998297;28;20464;-79
2023/11/13 06:59:11;;;;;;;4.45;2.40;;;14.10;89.80;;;;;;4998633;28;20026;-79
2023/11/13 07:01:41;;;;;;;4.25;2.38;;;14.10;89.80;;;;;;4998714;28;20446;-79
2023/11/13 07:04:10;;;;;;;6.78;2.60;;;14.10;90.00;;;;;;5015661;28;20018;-78
2023/11/13 07:06:39;;;;;;;4.95;2.28;;;14.10;90.00;;;;;;5014614;28;20034;-79
2023/11/13 07:09:11;;;;;;;5.25;2.70;;;14.10;90.00;;;;;;5016135;28;20104;-79
2023/11/13 07:11:47;;;;;;;5.38;2.30;;;14.00;90.00;;;;;;5014825;28;20030;-79
2023/11/13 07:14:14;;;;;;;5.22;2.53;;;14.00;90.00;;;;;;5014914;28;20065;-79
2023/11/13 07:16:42;;;;;;;4.00;2.13;;;14.00;90.10;;;;;;5015653;28;20021;-79
2023/11/13 07:19:12;;;;;;;4.65;2.67;;;14.00;90.10;;;;;;5014619;28;20022;-79
2023/11/13 07:21:38;;;;;;;5.13;2.70;;;13.90;90.20;;;;;;5015779;28;20093;-78
2023/11/13 07:24:05;;;;;;;5.47;2.50;;;14.00;90.20;;;;;;5016081;28;20097;-79
2023/11/13 07:26:31;;;;;;;4.82;2.38;;;13.90;90.20;;;;;;5014292;28;20030;-78
2023/11/13 07:28:57;;;;;;;5.03;2.83;;;13.90;90.20;;;;;;5014608;28;20180;-79
2023/11/13 07:31:23;;;;;;;4.97;2.40;;;13.90;90.30;;;;;;5014439;28;20116;-79
2023/11/13 07:33:51;;;;;;;5.75;2.40;;;13.90;90.30;;;;;;5015872;28;20030;-79
2023/11/13 07:36:17;;;;;;;4.45;2.55;;;13.90;90.30;;;;;;5014351;28;20065;-79
2023/11/13 07:38:43;;;;;;;4.85;2.50;;;13.90;90.30;;;;;;5015048;28;20058;-79
2023/11/13 07:41:11;;;;;;;5.72;2.30;;;13.90;90.40;;;;;;5014410;28;20021;-79
2023/11/13 07:43:41;;;;;;;4.80;2.63;;;13.90;90.40;;;;;;5015524;28;20018;-79
2023/11/13 07:46:07;;;;;;;4.85;2.53;;;13.90;90.40;;;;;;5014278;28;20026;-79
2023/11/13 07:48:37;;;;;;;4.70;2.42;;;13.90;90.40;;;;;;5011612;28;20025;-79
2023/11/13 07:51:04;;;;;;;4.28;2.30;;;13.90;90.40;;;;;;4995838;28;20054;-79
2023/11/13 07:53:29;;;;;;;3.90;2.20;;;13.90;90.40;;;;;;4977961;28;20033;-79
2023/11/13 07:55:55;;;;;;;5.00;2.70;;;13.90;90.40;;;;;;4993927;28;20022;-79
2023/11/13 07:58:21;;;;;;;5.07;2.60;;;13.90;90.40;;;;;;4978106;28;20159;-79
2023/11/13 08:00:47;;;;;;;4.75;2.38;;;13.90;90.40;;;;;;4995221;28;20503;-79
2023/11/13 08:03:16;;;;;;;4.55;2.25;;;13.90;90.40;;;;;;4978157;28;20121;-79
2023/11/13 08:05:42;;;;;;;5.25;2.50;;;13.90;90.50;;;;;;4995695;28;20022;-79
2023/11/13 08:08:08;;;;;;;4.70;2.45;;;13.90;90.50;;;;;;4977848;28;20137;-79
2023/11/13 08:10:34;;;;;;;4.80;2.70;;;13.90;90.50;;;;;;4977941;28;20698;-79
2023/11/13 08:13:01;;;;;;;4.78;2.58;;;13.90;90.50;;;;;;4977943;28;20026;-79
2023/11/13 08:15:26;;;;;;;4.38;2.45;;;13.90;90.40;;;;;;4978012;28;20552;-79
2023/11/13 08:17:52;;;;;;;3.92;2.33;;;13.90;90.40;;;;;;4977600;28;20023;-78
2023/11/13 08:20:18;;;;;;;6.43;2.90;;;14.00;90.40;;;;;;4995265;28;20026;-78
2023/11/13 08:22:47;;;;;;;4.05;2.10;;;14.00;90.40;;;;;;4977734;28;20022;-78
2023/11/13 08:25:15;;;;;;;4.60;2.35;;;14.00;90.30;;;;;;4994977;28;20026;-79
2023/11/13 08:27:41;;;;;;;4.05;2.20;;;14.00;90.30;;;;;;4977394;28;20117;-79
2023/11/13 08:30:08;;;;;;;4.13;2.30;;;14.00;90.30;;;;;;4977491;28;20022;-78
2023/11/13 08:32:34;;;;;;;4.38;2.42;;;14.00;90.20;;;;;;4994901;28;20479;-79
2023/11/13 08:35:02;;;;;;;4.82;2.60;;;14.00;90.10;;;;;;4995028;28;20026;-78
2023/11/13 08:37:28;;;;;;;5.65;2.50;;;14.00;90.20;;;;;;4994663;28;20136;-79
2023/11/13 08:39:54;;;;;;;4.70;2.40;;;14.00;90.10;;;;;;4977362;28;20114;-79
2023/11/13 08:42:21;;;;;;;4.65;2.58;;;13.90;90.10;;;;;;4978421;28;20031;-80
2023/11/13 08:44:48;;;;;;;4.78;2.47;;;13.90;90.20;;;;;;4977288;28;20032;-79
2023/11/13 08:47:15;;;;;;;4.05;2.38;;;13.90;90.20;;;;;;4977018;28;20109;-79
2023/11/13 08:49:41;;;;;;;4.60;2.45;;;13.90;90.20;;;;;;4977465;28;20038;-79
2023/11/13 08:52:08;;;;;;;4.32;2.38;;;13.90;90.20;;;;;;4995338;28;20045;-78
2023/11/13 08:54:35;;;;;;;4.32;2.45;;;13.90;90.30;;;;;;5013948;28;20053;-79
2023/11/13 08:57:06;;;;;;;5.72;2.30;;;13.90;90.30;;;;;;4996170;28;20033;-79
2023/11/13 08:59:32;;;;;;;4.32;2.35;;;13.80;90.30;;;;;;5014048;28;20388;-79
2023/11/13 09:01:58;;;;;;;3.78;2.30;;;13.80;90.30;;;;;;4996675;28;20547;-79
2023/11/13 09:04:23;;;;;;;4.10;2.40;;;13.90;90.30;;;;;;4996038;28;20030;-79
2023/11/13 09:06:50;;;;;;;5.00;2.45;;;13.80;90.30;;;;;;4995743;28;20026;-79
2023/11/13 09:09:16;;;;;;;4.40;2.40;;;13.80;90.30;;;;;;5013841;28;20111;-79
2023/11/13 09:11:41;;;;;;;4.55;2.20;;;13.80;90.30;;;;;;5013868;28;20062;-79
2023/11/13 09:14:10;;;;;;;4.35;2.60;;;13.90;90.30;;;;;;5014086;28;20507;-79
2023/11/13 09:16:38;;;;;;;6.43;2.67;;;13.80;90.30;;;;;;5013823;28;20033;-78
2023/11/13 09:19:04;;;;;;;4.60;2.30;;;13.80;90.30;;;;;;4996373;28;20028;-79
2023/11/13 09:21:29;;;;;;;5.50;2.72;;;13.80;90.30;;;;;;4996067;28;20165;-79
2023/11/13 09:23:55;;;;;;;4.60;2.45;;;13.90;90.40;;;;;;4996066;28;20046;-79
2023/11/13 09:26:20;;;;;;;4.55;2.50;;;13.80;90.40;;;;;;5013420;28;20026;-79
2023/11/13 09:28:46;;;;;;;4.25;2.35;;;13.80;90.40;;;;;;4995788;28;20041;-79
2023/11/13 09:31:11;;;;;;;6.00;2.67;;;13.80;90.40;;;;;;4996006;28;20146;-80
2023/11/13 09:33:39;;;;;;;4.43;2.50;;;13.80;90.40;;;;;;4995994;28;20387;-79
2023/11/13 09:36:06;;;;;;;4.25;2.35;;;13.80;90.40;;;;;;4996026;28;20034;-79
2023/11/13 09:38:32;;;;;;;4.68;2.47;;;13.80;90.50;;;;;;5013167;28;20034;-79
2023/11/13 09:41:03;;;;;;;3.75;2.15;;;13.80;90.60;;;;;;4996024;28;20093;-78
2023/11/13 09:43:34;;;;;;;3.83;2.22;;;13.80;90.60;;;;;;5013461;28;20029;-79
2023/11/13 09:46:03;;;;;;;4.00;2.15;;;13.80;90.50;;;;;;4995787;28;20430;-79
2023/11/13 09:48:30;;;;;;;4.05;2.30;;;13.90;90.50;;;;;;4995336;28;20037;-78
2023/11/13 09:50:59;;;;;;;4.28;2.40;;;13.90;90.50;;;;;;5013128;28;20071;-79
2023/11/13 09:53:27;;;;;;;4.25;2.25;;;13.90;90.40;;;;;;4995754;28;20026;-79
2023/11/13 09:55:53;;;;;;;4.22;2.40;;;13.90;90.40;;;;;;5013727;28;20038;-79
2023/11/13 09:58:20;;;;;;;4.05;2.20;;;13.90;90.30;;;;;;4995548;28;20025;-78
2023/11/13 10:00:45;;;;;;;4.28;2.40;;;13.90;90.30;;;;;;4995893;28;20049;-79
2023/11/13 10:03:14;;;;;;;3.95;2.20;;;13.90;90.30;;;;;;4995167;28;20546;-77
2023/11/13 10:05:40;;;;;;;3.53;1.90;;;13.90;90.20;;;;;;4995526;28;20029;-79
2023/11/13 10:08:06;;;;;;;4.90;2.55;;;13.90;90.30;;;;;;5012982;28;20026;-79
2023/11/13 10:10:32;;;;;;;4.53;2.42;;;13.90;90.60;;;;;;4995450;28;20117;-79
2023/11/13 10:13:01;;;;;;;3.78;2.25;;;13.90;90.30;;;;;;5013033;28;20033;-79
2023/11/13 10:15:31;;;;;;;4.25;2.20;;;13.80;90.40;;;;;;4995382;28;20080;-79
2023/11/13 10:18:08;;;;;;;3.90;2.28;;;13.80;90.40;;;;;;4995713;28;20080;-79
2023/11/13 10:20:45;;;;;;;4.32;2.30;;;13.80;90.40;;;;;;5017243;28;20054;-79
2023/11/13 10:23:13;;;;;;;4.30;1.90;;;13.80;90.40;;;;;;4999230;28;20072;-79
2023/11/13 10:25:59;;;;;;;4.13;2.25;;;13.80;90.50;;;;;;4999577;28;20582;-80
2023/11/13 10:28:40;;;;;;;4.32;1.98;;;13.80;90.50;;;;;;4999044;28;20030;-79
2023/11/13 10:31:12;;;;;;;3.42;1.95;;;13.80;90.50;;;;;;5016781;28;20018;-79
2023/11/13 10:33:39;;;;;;;4.30;2.30;;;13.80;90.50;;;;;;4999280;28;20026;-79
2023/11/13 10:36:17;;;;;;;3.80;2.17;;;13.80;90.50;;;;;;4999023;28;20080;-79
2023/11/13 10:38:45;;;;;;;3.25;1.90;;;13.80;90.50;;;;;;4999177;28;20504;-79
2023/11/13 10:41:12;;;;;;;3.80;2.35;;;13.80;90.50;;;;;;5016689;28;20395;-79
2023/11/13 10:43:41;;;;;;;4.38;2.00;;;13.80;90.50;;;;;;5016641;28;20093;-78
2023/11/13 10:46:07;;;;;;;3.42;1.90;;;13.80;90.60;;;;;;4999064;28;20057;-79
2023/11/13 10:48:43;;;;;;;4.00;2.20;;;13.80;90.60;;;;;;4999012;28;20113;-79
2023/11/13 10:51:11;;;;;;;4.28;2.15;;;13.80;90.50;;;;;;5016734;28;20033;-78
2023/11/13 10:53:42;;;;;;;4.47;2.13;;;13.80;90.60;;;;;;4998867;28;20071;-79
2023/11/13 10:56:13;;;;;;;3.92;2.05;;;13.80;90.60;;;;;;4998830;28;20045;-77
2023/11/13 10:58:39;;;;;;;3.42;1.90;;;13.80;90.60;;;;;;4998538;28;20488;-78
2023/11/13 11:01:10;;;;;;;3.78;2.10;;;13.70;90.50;;;;;;4998858;28;20041;-78
2023/11/13 11:03:39;;;;;;;3.30;1.83;;;13.70;90.60;;;;;;5015903;28;20029;-79
2023/11/13 11:06:12;;;;;;;4.47;2.08;;;13.80;90.70;;;;;;4998721;28;20343;-80
2023/11/13 11:08:38;;;;;;;4.60;2.03;;;13.80;90.70;;;;;;5015978;28;20022;-78
2023/11/13 11:11:10;;;;;;;2.78;1.70;;;13.80;90.60;;;;;;5016124;28;20037;-79
2023/11/13 11:13:43;;;;;;;3.58;1.83;;;13.80;90.60;;;;;;4998343;28;20021;-78
2023/11/13 11:16:13;;;;;;;2.83;1.63;;;13.80;90.50;;;;;;4998577;28;20060;-79
2023/11/13 11:19:13;;;;;;;3.35;1.92;;;13.80;90.50;;;;;;4998116;28;20053;-79
2023/11/13 11:22:04;;;;;;;3.33;1.80;;;13.90;90.40;;;;;;4997928;28;20113;-79
2023/11/13 11:25:00;;;;;;;3.53;1.80;;;13.90;90.50;;;;;;4998420;28;20041;-79
2023/11/13 11:27:43;;;;;;;3.15;1.80;;;13.90;90.40;;;;;;5015451;28;20037;-79
2023/11/13 11:30:17;;;;;;;3.30;1.95;;;13.80;90.40;;;;;;4997968;28;20508;-78
2023/11/13 11:32:57;;;;;;;4.00;1.80;;;13.80;90.30;;;;;;4998362;28;20030;-78
2023/11/13 11:35:24;;;;;;;3.20;1.70;;;13.80;90.30;;;;;;4998069;28;20107;-78
2023/11/13 11:38:15;;;;;;;2.92;1.63;;;13.80;90.40;;;;;;4997768;28;20112;-79
2023/11/13 11:40:40;;;;;;;;;;;13.80;90.40;;;;;;4998760;28;20034;-79
2023/11/13 11:43:08;;;;;;;3.53;1.83;;;13.80;90.40;;;;;;4997998;28;19987;-79
2023/11/13 11:45:34;;;;;;;4.05;2.00;;;13.80;90.40;;;;;;4997988;28;20026;-79
2023/11/13 11:47:59;;;;;;;3.08;1.90;;;13.80;90.50;;;;;;4997631;28;20028;-79
2023/11/13 11:50:25;;;;;;;4.00;1.92;;;13.70;90.50;;;;;;4997980;28;20120;-79
2023/11/13 11:52:52;;;;;;;3.72;1.90;;;13.70;90.50;;;;;;4997897;28;20097;-79
2023/11/13 11:55:19;;;;;;;3.42;1.80;;;13.70;90.50;;;;;;4997914;28;20029;-79
2023/11/13 11:57:46;;;;;;;3.67;1.80;;;13.70;90.50;;;;;;5014944;28;20033;-79
2023/11/13 12:00:15;;;;;;;3.30;1.67;;;13.70;90.50;;;;;;4997530;28;20022;-79
2023/11/13 12:02:42;;;;;;;3.25;1.77;;;13.80;90.50;;;;;;4997376;28;20049;-79
2023/11/13 12:05:08;;;;;;;3.35;1.70;;;13.70;90.50;;;;;;4997557;28;20022;-78
2023/11/13 12:07:34;;;;;;;2.92;1.70;;;13.70;90.50;;;;;;4997226;28;20128;-79
2023/11/13 12:10:08;;;;;;;3.15;1.55;;;13.70;90.50;;;;;;5015434;28;20369;-79
2023/11/13 12:12:35;;;;;;;2.88;1.63;;;13.70;90.50;;;;;;5015088;28;20108;-79
2023/11/13 12:15:00;;;;;;;3.60;1.77;;;13.70;90.50;;;;;;4997686;28;20076;-79
2023/11/13 12:17:26;;;;;;;3.08;1.75;;;13.70;90.50;;;;;;4997094;28;20026;-79
2023/11/13 12:19:51;;;;;;;2.88;1.70;;;13.70;90.60;;;;;;4997382;28;20022;-79
2023/11/13 12:22:17;;;;;;;3.03;1.60;;;13.70;90.60;;;;;;5014962;28;20661;-78
2023/11/13 12:24:43;;;;;;;3.05;1.55;;;13.70;90.60;;;;;;4997072;28;20048;-79
2023/11/13 12:27:09;;;;;;;3.63;1.75;;;13.70;90.60;;;;;;4997040;28;20025;-79
2023/11/13 12:29:34;;;;;;;2.63;1.50;;;13.70;90.60;;;;;;4997375;28;20246;-78
2023/11/13 12:32:00;;;;;;;3.33;1.77;;;13.70;90.60;;;;;;4997027;28;20113;-79
2023/11/13 12:34:30;;;;;;;2.88;1.48;;;13.70;90.70;;;;;;5014653;28;20026;-79
2023/11/13 12:36:56;;;;;;;2.80;1.60;;;13.70;90.70;;;;;;4996702;28;20036;-78
2023/11/13 12:39:24;;;;;;;3.00;1.60;;;13.70;90.60;;;;;;5014680;28;20112;-79
2023/11/13 12:41:51;;;;;;;2.78;1.50;;;13.80;90.60;;;;;;5014127;28;20024;-79
2023/11/13 12:44:19;;;;;;;3.10;1.50;;;13.80;90.50;;;;;;4996584;28;20419;-79
2023/11/13 12:46:50;;;;;;;3.15;1.33;;;13.80;90.50;;;;;;4996612;28;20026;-78
2023/11/13 12:49:19;;;;;;;2.53;1.45;;;13.80;90.50;;;;;;4996687;28;20056;-79
2023/11/13 12:51:46;;;;;;;2.42;1.50;;;13.80;90.40;;;;;;5014544;28;20026;-79
2023/11/13 12:54:12;;;;;;;2.53;1.48;;;13.80;90.40;;;;;;4996494;28;20125;-78
2023/11/13 12:56:46;;;;;;;2.95;1.60;;;13.80;90.40;;;;;;5013876;28;20022;-79
2023/11/13 12:59:20;;;;;;;2.40;1.40;;;13.80;90.40;;;;;;4996694;28;20025;-79